Archival Weather

Vermilion Rgnl

Danville, Illinois (KDNV)

Report from: Tuesday, March 26, 2024 4:15 PM CDT
Current time: Sunday, July 14, 2024 6:17 AM CDT

Current weather – Weather history – Daily summaries
Weather forecast

Temperature7.3°C (45.1°F)
Wind chill2.5°C (36.4°F)
Dew point1.6°C (34.9°F)
Winds 21 kts (10.8 m/s, 24.2 mph) West-Southwest (240°)
Wind gusts 31 kts (15.9 m/s, 35.7 mph)
Visibility10 mi. (16.1 km)
Clouds Ceiling: Broken clouds 2,900 ft. (884 m)
Overcast 6,000 ft. (1,829 m)
Altimeter29.69 in.Hg (1005 mB)
Relative humidity67 %
Density altitude-556 ft. (-169 m)
Remarks Fully automated report
Automated weather observing station with precipitation discriminator
Flight conditions Marginal Visual Meteorological Conditions
Raw dataKDNV 262115Z AUTO 24021G31KT 10SM BKN029 OVC060 07/02 A2969 RMK AO2 T00730016
An error has occurred. This application may no longer respond until reloaded. Reload 🗙